Airfield :
LOGIN :

Register | Disclaimer

   EN    FR    IT 

 










Legend :    VFR   Marginal VFR   IFR   Intensive IFR   Very Intensive IFR
Visi :
Ceiling :
>= 8 km
>= 3000ft
5 to 8 km
1000 to 3000 ft
1500m to 5 km
500 to 1000 ft
800 to 1500m
200 to 500 ft
< 800m
< 200 ft
Symbols :   Thunderstorms  Fog  Heavy snow  Heavy precipitations  Wind > 20 kt
SIGMETs :     Misc.  Thunderstorms  Icing  Turbulence  Mountain Waves  Volcanic Ashes






- Airport Elevation : 288 ft
- IATA code : BZZ


EGVN - RAF Brize Norton

CURRENT METAR :
  • 070850Z 22007KT 9999 SCT017 SCT065 15/12 Q1019 TEMPO FEW020 RMK WHT TEMPO BLU

EXPIRED METARs :
  • 070820Z 21007KT 9999 FEW018 SCT064 BKN240 14/11 Q1019 NOSIG RMK BLU BLU
  • 070750Z 22006KT 9999 FEW015 SCT062 BKN240 13/11 Q1019 NOSIG RMK BLU BLU
  • 070720Z 21006KT 9999 FEW015 FEW060 BKN220 12/10 Q1019 NOSIG RMK BLU BLU
  • 070650Z 21006KT 9999 FEW011 SCT066 BKN280 12/10 Q1020 NOSIG RMK BLU BLU
  • 070620Z AUTO 21005KT 9999 BKN010/// BKN033/// 12/10 Q1020

TAF TAF EGVN
Valid from the 07 at 09:00 until the 08 at 09:00 UTC


070742Z 0709/0809 21012KT 9999 FEW020
TEMPO 0709/0711 SCT020
TEMPO 0709/0717 23015G27KT
PROB30
TEMPO 0714/0717 6000 RA SCT022



MET'MAP, your aeronautical weather chart ! - Copyright ORBIFLY December 2007 - Disclaimer

ORBIFLY MET'MAP TEAM :

Programming & Development : Alexandra Zaïnal
Original concept : Baudouin d'Aumeries
Technical & hardware support : Manuel Goepfert
Assistance : Marc-Olivier Méhu




SOURCES & CREDITS :

   NOAA